Weather at Des Moines International Airport

Public forecast

Using degrees Fahrenheit for public forecast. Weather courtesy of forecast.io.

Current aviation weather report (METAR) for Des Moines International Airport

Report is more than 6 hours old.

2022/11/14 14:54 (retrieved 2 years ago)

KDSM 141454Z 14011KT 10SM FEW090 BKN250 M01/M05 A3021 RMK AO2 SLP239 T10061050 56001

Aviation forecast (TAF) for Des Moines International Airport

Forecast is more than 12 hours old.

2023/02/22 18:22 (retrieved 1 year ago)

TAF KDSM 221720Z 2218/2318 06012G29KT 5SM -FZDZ BR OVC015 FM222000 06011G22KT 2SM -FZRA BR OVC006 FM230000 04016G24KT P6SM VCSH OVC006 FM230700 02008KT P6SM VCSH OVC003 FM231200 27022G35KT P6SM BKN010 FM231700 29019G29KT P6SM BKN045